Time;durP1;ratioP1;P1;durP2;ratioP2;P2;SDS_P1;SDS_P2;PMS_P1;PMS_P2;Temp;Humidity;BMP_temperature;BMP_pressure;BME280_temperature;BME280_humidity;BME280_pressure;Samples;Min_cycle;Max_cycle;Signal;HPM_P1;HPM_P2
2024/02/17 00:00:25;;;;;;;26.55;13.27;;;;;;;13.54;63.63;102343.69;4963653;28;109683;-75
2024/02/17 00:02:52;;;;;;;22.17;13.35;;;;;;;13.53;63.55;102346.41;4975465;28;110445;-73
2024/02/17 00:05:20;;;;;;;25.88;14.00;;;;;;;13.53;63.32;102347.25;4973030;28;124063;-73
2024/02/17 00:07:47;;;;;;;29.10;14.13;;;;;;;13.54;63.63;102353.44;4973636;28;123961;-74
2024/02/17 00:10:14;;;;;;;27.65;14.20;;;;;;;13.53;63.63;102362.38;4973475;28;110090;-74
2024/02/17 00:12:42;;;;;;;29.92;14.40;;;;;;;13.52;63.50;102349.97;4975827;28;110484;-73
2024/02/17 00:15:10;;;;;;;26.65;13.88;;;;;;;13.51;63.63;102367.75;4975350;28;123352;-73
2024/02/17 00:17:38;;;;;;;26.25;14.43;;;;;;;13.50;63.63;102367.78;4965965;28;123797;-74
2024/02/17 00:20:07;;;;;;;23.70;13.90;;;;;;;13.49;63.65;102366.91;4968662;28;109507;-73
2024/02/17 00:22:35;;;;;;;29.23;14.73;;;;;;;13.49;63.58;102366.06;4959456;28;109949;-73
2024/02/17 00:25:02;;;;;;;24.33;13.77;;;;;;;13.46;63.56;102367.00;4967897;28;124205;-73
2024/02/17 00:27:29;;;;;;;26.05;14.13;;;;;;;13.44;63.40;102368.84;4973644;28;123320;-73
2024/02/17 00:30:07;;;;;;;23.60;14.25;;;;;;;13.43;63.50;102373.31;4967952;28;109202;-73
2024/02/17 00:32:34;;;;;;;27.73;14.40;;;;;;;13.43;63.55;102369.78;4974199;28;109722;-73
2024/02/17 00:35:02;;;;;;;28.15;14.50;;;;;;;13.43;63.51;102383.97;4974065;28;124197;-73
2024/02/17 00:37:31;;;;;;;31.02;14.55;;;;;;;13.42;63.65;102384.88;4971182;28;123836;-73
2024/02/17 00:40:01;;;;;;;28.15;14.30;;;;;;;13.42;63.61;102384.88;4973361;28;110933;-73
2024/02/17 00:42:28;;;;;;;27.80;14.43;;;;;;;13.40;63.40;102384.06;4973950;28;110067;-74
2024/02/17 00:44:57;;;;;;;27.52;14.25;;;;;;;13.40;63.56;102383.19;4966197;28;123337;-74
2024/02/17 00:47:24;;;;;;;22.70;14.13;;;;;;;13.39;63.59;102387.66;4971653;28;123618;-73
2024/02/17 00:49:52;;;;;;;28.45;14.48;;;;;;;13.38;63.57;102396.53;4973641;28;109027;-73
2024/02/17 00:52:20;;;;;;;22.38;14.05;;;;;;;13.38;63.58;102395.69;4971600;28;110487;-72
2024/02/17 00:54:49;;;;;;;29.17;13.90;;;;;;;13.37;63.50;102400.13;4973572;28;124575;-73
2024/02/17 00:57:16;;;;;;;24.75;13.60;;;;;;;13.36;63.41;102403.69;4972823;28;124139;-73
2024/02/17 00:59:43;;;;;;;29.05;14.57;;;;;;;13.34;63.46;102400.22;4967896;28;109988;-73
2024/02/17 01:02:10;;;;;;;31.00;14.90;;;;;;;13.34;63.50;102405.53;4974347;28;109578;-74
2024/02/17 01:04:39;;;;;;;22.98;14.32;;;;;;;13.34;63.59;102402.88;4972559;28;124127;-74
2024/02/17 01:07:06;;;;;;;26.63;13.80;;;;;;;13.34;63.52;102410.88;4968606;28;123955;-73
2024/02/17 01:09:35;;;;;;;25.60;14.23;;;;;;;13.33;63.58;102409.09;4963549;28;109334;-74
2024/02/17 01:12:02;;;;;;;28.58;14.48;;;;;;;13.32;63.57;102410.03;4969190;28;110217;-73
2024/02/17 01:14:34;;;;;;;25.38;14.35;;;;;;;13.31;63.71;102412.75;4973093;28;124358;-76
2024/02/17 01:17:01;;;;;;;27.63;15.05;;;;;;;13.30;63.63;102403.91;4972242;28;125257;-76
2024/02/17 01:19:35;;;;;;;26.13;14.20;;;;;;;13.29;63.48;102412.75;4973146;28;109035;-76
2024/02/17 01:22:02;;;;;;;22.90;14.68;;;;;;;13.29;63.46;102407.44;4970509;28;110795;-76
2024/02/17 01:24:30;;;;;;;28.88;14.75;;;;;;;13.28;63.40;102411.03;4971252;28;125095;-76
2024/02/17 01:26:58;;;;;;;30.08;15.43;;;;;;;13.28;63.56;102416.34;4967739;28;123514;-76
2024/02/17 01:29:25;;;;;;;23.17;14.27;;;;;;;13.28;63.56;102416.34;4972663;28;110035;-76
2024/02/17 01:31:54;;;;;;;26.77;14.68;;;;;;;13.26;63.51;102418.19;4964949;28;110590;-76
2024/02/17 01:34:24;;;;;;;25.63;15.02;;;;;;;13.26;63.60;102428.84;4973120;28;124085;-76
2024/02/17 01:36:51;;;;;;;24.98;13.85;;;;;;;13.25;63.45;102427.94;4974478;28;123247;-76
2024/02/17 01:39:19;;;;;;;23.48;13.65;;;;;;;13.25;63.51;102427.09;4972313;28;108699;-74
2024/02/17 01:41:47;;;;;;;22.10;13.00;;;;;;;13.25;63.50;102427.09;4974647;28;109886;-75
2024/02/17 01:44:14;;;;;;;20.67;12.70;;;;;;;13.26;63.53;102439.47;4976380;28;124735;-75
2024/02/17 01:46:41;;;;;;;27.35;13.60;;;;;;;13.26;63.59;102439.47;4972879;28;123763;-74
2024/02/17 01:49:10;;;;;;;21.73;13.02;;;;;;;13.26;63.57;102439.47;4971762;28;109343;-74
2024/02/17 01:51:39;;;;;;;22.33;12.73;;;;;;;13.26;63.56;102444.81;4973698;28;109891;-74
2024/02/17 01:54:08;;;;;;;20.83;13.10;;;;;;;13.27;63.66;102445.66;4975382;28;124522;-74
2024/02/17 01:56:38;;;;;;;24.13;12.30;;;;;;;13.27;63.63;102446.53;4974802;28;124545;-74
2024/02/17 01:59:05;;;;;;;19.73;12.65;;;;;;;13.26;63.67;102442.16;4968637;28;109203;-75
2024/02/17 02:01:46;;;;;;;22.60;12.82;;;;;;;13.26;63.81;102444.81;4958321;28;109775;-75
2024/02/17 02:04:13;;;;;;;26.38;13.02;;;;;;;13.27;63.55;102451.84;4971579;28;124201;-74
2024/02/17 02:06:41;;;;;;;24.75;11.98;;;;;;;13.27;63.59;102457.16;4972593;28;124324;-74
2024/02/17 02:09:09;;;;;;;25.13;12.93;;;;;;;13.27;63.67;102457.16;4972288;28;110189;-73
2024/02/17 02:11:37;;;;;;;19.30;12.10;;;;;;;13.27;63.53;102457.16;4974980;28;110088;-73
2024/02/17 02:14:16;;;;;;;22.13;12.02;;;;;;;13.28;63.59;102456.28;4974619;28;124109;-74
2024/02/17 02:16:44;;;;;;;19.20;11.50;;;;;;;13.29;63.63;102460.66;4971694;28;123778;-73
2024/02/17 02:19:14;;;;;;;24.00;12.38;;;;;;;13.28;63.64;102464.25;4971401;28;110247;-73
2024/02/17 02:21:43;;;;;;;22.15;11.93;;;;;;;13.29;63.55;102471.28;4959250;28;109099;-74
2024/02/17 02:24:10;;;;;;;20.67;11.73;;;;;;;13.29;63.66;102470.44;4973078;28;124007;-74
2024/02/17 02:26:38;;;;;;;28.63;12.88;;;;;;;13.30;63.60;102477.47;4972323;28;124684;-73
2024/02/17 02:29:07;;;;;;;22.25;11.98;;;;;;;13.30;63.67;102473.09;4971625;28;109162;-73
2024/02/17 02:31:34;;;;;;;23.35;11.32;;;;;;;13.30;63.56;102478.41;4973954;28;109157;-74
2024/02/17 02:34:09;;;;;;;20.73;11.82;;;;;;;13.29;63.62;102475.75;4972211;28;124138;-74
2024/02/17 02:36:37;;;;;;;;;;;;;;;13.29;63.57;102476.63;4965974;28;125099;-75
2024/02/17 02:39:04;;;;;;;18.58;11.30;;;;;;;13.29;63.38;102484.59;4972990;28;109292;-74
2024/02/17 02:41:31;;;;;;;21.33;11.23;;;;;;;13.28;63.64;102484.66;4967735;28;110401;-74
2024/02/17 02:43:59;;;;;;;21.30;11.88;;;;;;;13.27;63.30;102489.09;4964534;28;124325;-74
2024/02/17 02:46:26;;;;;;;24.67;12.55;;;;;;;13.26;63.75;102492.69;4967304;28;123832;-73
2024/02/17 02:48:53;;;;;;;24.50;12.60;;;;;;;13.26;63.49;102503.34;4956510;28;109285;-73
2024/02/17 02:51:20;;;;;;;23.80;11.57;;;;;;;13.26;63.81;102498.03;4971022;28;110399;-73
2024/02/17 02:53:50;;;;;;;22.48;12.38;;;;;;;13.26;63.65;102492.69;4971705;28;124893;-73
2024/02/17 02:56:17;;;;;;;19.73;11.52;;;;;;;13.26;63.92;102503.34;4967241;28;124274;-73
2024/02/17 02:58:44;;;;;;;24.58;11.48;;;;;;;13.26;63.72;102511.31;4962954;28;108493;-73
2024/02/17 03:01:12;;;;;;;24.92;12.00;;;;;;;13.28;63.74;102512.16;4961656;28;108991;-73
2024/02/17 03:03:41;;;;;;;22.50;12.02;;;;;;;13.26;63.57;102516.66;4972409;28;124372;-73
2024/02/17 03:06:09;;;;;;;23.83;12.93;;;;;;;13.28;63.98;102517.47;4968031;28;123989;-73
2024/02/17 03:08:36;;;;;;;24.02;12.07;;;;;;;13.28;63.89;102528.13;4962553;28;110365;-73
2024/02/17 03:11:04;;;;;;;21.88;12.10;;;;;;;13.29;63.86;102523.66;4970770;28;110252;-73
2024/02/17 03:13:34;;;;;;;21.30;11.88;;;;;;;13.29;63.75;102532.50;4950727;28;122045;-73
2024/02/17 03:16:02;;;;;;;23.02;11.65;;;;;;;13.30;63.65;102530.69;4962856;28;124422;-73
2024/02/17 03:18:29;;;;;;;21.80;12.65;;;;;;;13.32;63.81;102535.13;4967832;28;109523;-73
2024/02/17 03:20:57;;;;;;;23.30;12.40;;;;;;;13.32;63.85;102535.13;4972276;28;110053;-73
2024/02/17 03:23:26;;;;;;;22.40;12.65;;;;;;;13.31;63.83;102538.69;4972972;28;124588;-73
2024/02/17 03:25:53;;;;;;;25.42;12.48;;;;;;;13.31;63.84;102528.03;4970878;28;123794;-73
2024/02/17 03:28:21;;;;;;;27.77;13.18;;;;;;;13.32;63.80;102545.75;4973541;28;108553;-73
2024/02/17 03:30:48;;;;;;;22.85;12.80;;;;;;;13.31;63.88;102544.00;4974547;28;110394;-73
2024/02/17 03:33:16;;;;;;;27.13;13.23;;;;;;;13.32;63.76;102544.91;4968498;28;124866;-73
2024/02/17 03:35:44;;;;;;;26.30;12.38;;;;;;;13.32;63.81;102545.75;4972653;28;123978;-73
2024/02/17 03:38:11;;;;;;;22.77;12.40;;;;;;;13.32;63.77;102556.41;4971586;28;109374;-73
2024/02/17 03:40:39;;;;;;;22.52;12.15;;;;;;;13.33;63.89;102557.28;4972128;28;109917;-73
2024/02/17 03:43:06;;;;;;;26.42;12.98;;;;;;;13.32;63.82;102556.41;4971667;28;124169;-73
2024/02/17 03:45:34;;;;;;;25.83;12.93;;;;;;;13.32;63.90;102556.41;4969133;28;124250;-73
2024/02/17 03:48:02;;;;;;;23.23;12.85;;;;;;;13.34;63.80;102559.03;4975021;28;110033;-73
2024/02/17 03:50:35;;;;;;;26.70;12.82;;;;;;;13.33;63.83;102558.13;4960602;28;110477;-73
2024/02/17 03:53:02;;;;;;;20.73;11.80;;;;;;;13.35;63.87;102566.94;4960479;28;123211;-73
2024/02/17 03:55:31;;;;;;;25.00;12.35;;;;;;;13.34;63.75;102570.53;4976770;28;124223;-73
2024/02/17 03:57:58;;;;;;;24.60;13.40;;;;;;;13.36;63.77;102567.84;4973500;28;109948;-73
2024/02/17 04:00:31;;;;;;;25.25;12.65;;;;;;;13.34;63.72;102573.19;4971117;28;109846;-73
2024/02/17 04:02:59;;;;;;;24.20;13.20;;;;;;;13.36;63.85;102579.34;4974299;28;124145;-73
2024/02/17 04:05:26;;;;;;;21.05;12.27;;;;;;;13.36;63.84;102578.47;4972959;28;124818;-74
2024/02/17 04:07:54;;;;;;;20.33;12.25;;;;;;;13.35;63.75;102577.59;4974676;28;109410;-75
2024/02/17 04:10:22;;;;;;;24.33;11.82;;;;;;;13.35;63.77;102582.91;4973961;28;110149;-76
2024/02/17 04:12:49;;;;;;;22.85;12.40;;;;;;;13.34;63.79;102590.97;4976811;28;124117;-75
2024/02/17 04:15:23;;;;;;;23.77;12.77;;;;;;;13.32;63.99;102588.34;4975828;28;123608;-75
2024/02/17 04:17:50;;;;;;;26.95;13.13;;;;;;;13.34;63.88;102586.50;4971806;28;110672;-74
2024/02/17 04:20:18;;;;;;;23.85;13.15;;;;;;;13.33;63.83;102590.06;4965557;28;110209;-74
2024/02/17 04:22:47;;;;;;;23.15;13.05;;;;;;;13.34;63.88;102581.19;4975199;28;124407;-74
2024/02/17 04:25:15;;;;;;;25.23;12.95;;;;;;;13.34;63.63;102583.84;4973168;28;124240;-74
2024/02/17 04:27:42;;;;;;;26.58;13.60;;;;;;;13.34;63.90;102597.16;4974419;28;109220;-74
2024/02/17 04:30:10;;;;;;;29.25;13.80;;;;;;;13.34;63.89;102591.81;4957377;28;109370;-75
2024/02/17 04:32:37;;;;;;;22.83;13.20;;;;;;;13.33;63.80;102600.72;4970775;28;124482;-75
2024/02/17 04:35:06;;;;;;;21.95;13.35;;;;;;;13.34;63.92;102607.78;4974408;28;124115;-75
2024/02/17 04:37:33;;;;;;;22.70;12.82;;;;;;;13.34;63.87;102618.44;4959585;28;108305;-75
2024/02/17 04:40:10;;;;;;;23.95;13.00;;;;;;;13.34;63.88;102623.75;4974288;28;109949;-74
2024/02/17 04:42:37;;;;;;;24.15;13.30;;;;;;;13.34;63.92;102618.44;4962647;28;124352;-74
2024/02/17 04:45:05;;;;;;;27.98;13.73;;;;;;;13.36;63.91;102627.25;4965967;28;124228;-73
2024/02/17 04:47:32;;;;;;;23.23;12.85;;;;;;;13.36;63.93;102634.38;4973640;28;109093;-72
2024/02/17 04:50:00;;;;;;;28.95;13.55;;;;;;;13.37;63.95;102634.34;4966897;28;110060;-73
2024/02/17 04:52:27;;;;;;;23.50;13.20;;;;;;;13.39;63.81;102643.16;4976174;28;124070;-73
2024/02/17 04:54:54;;;;;;;25.92;13.65;;;;;;;13.38;63.97;102646.72;4970296;28;123991;-73
2024/02/17 04:57:23;;;;;;;21.75;11.77;;;;;;;13.40;63.91;102644.88;4964107;28;109117;-73
2024/02/17 04:59:51;;;;;;;20.67;12.30;;;;;;;13.39;63.84;102643.16;4975205;28;109176;-74
2024/02/17 05:02:27;;;;;;;23.80;12.40;;;;;;;13.40;63.75;102650.19;4966632;28;123702;-73
2024/02/17 05:04:54;;;;;;;21.90;12.25;;;;;;;13.41;63.74;102651.97;4966319;28;124123;-73
2024/02/17 05:07:26;;;;;;;25.25;12.80;;;;;;;13.41;63.82;102657.28;4973604;28;109318;-74
2024/02/17 05:09:53;;;;;;;27.95;13.10;;;;;;;13.42;63.93;102664.34;4972141;28;109767;-74
2024/02/17 05:12:20;;;;;;;22.02;12.40;;;;;;;13.43;63.65;102663.44;4974352;28;123392;-74
2024/02/17 05:14:54;;;;;;;19.55;12.30;;;;;;;13.43;63.78;102660.78;4973133;28;125930;-74
2024/02/17 05:17:21;;;;;;;23.45;12.52;;;;;;;13.46;63.85;102669.59;4976091;28;109281;-74
2024/02/17 05:19:49;;;;;;;21.77;12.18;;;;;;;13.47;63.81;102671.31;4969227;28;110364;-74
2024/02/17 05:22:16;;;;;;;21.60;12.55;;;;;;;13.47;63.85;102676.63;4957644;28;123577;-74
2024/02/17 05:24:45;;;;;;;21.08;12.77;;;;;;;13.48;63.80;102678.41;4972380;28;124377;-74
2024/02/17 05:27:13;;;;;;;21.35;11.85;;;;;;;13.49;63.69;102685.47;4971615;28;109165;-74
2024/02/17 05:29:41;;;;;;;19.95;12.27;;;;;;;13.48;63.67;102684.59;4966660;28;110335;-74
2024/02/17 05:32:08;;;;;;;21.75;12.93;;;;;;;13.48;63.63;102683.72;4972536;28;124216;-73
2024/02/17 05:34:36;;;;;;;23.02;11.80;;;;;;;13.49;63.71;102691.66;4971867;28;124173;-73
2024/02/17 05:37:04;;;;;;;22.55;12.23;;;;;;;13.50;63.63;102703.19;4971695;28;110010;-72
2024/02/17 05:39:32;;;;;;;21.75;11.73;;;;;;;13.50;63.50;102703.19;4966351;28;109955;-72
2024/02/17 05:42:01;;;;;;;21.92;12.70;;;;;;;13.51;63.56;102705.81;4960116;28;124703;-72
2024/02/17 05:44:28;;;;;;;21.88;11.90;;;;;;;13.52;63.63;102712.00;4970595;28;124056;-72
2024/02/17 05:46:56;;;;;;;22.77;11.23;;;;;;;13.50;63.50;102709.38;4974295;28;108801;-72
2024/02/17 05:49:23;;;;;;;21.02;11.27;;;;;;;13.51;63.56;102720.91;4968232;28;110378;-72
2024/02/17 05:51:51;;;;;;;24.45;12.40;;;;;;;13.50;63.54;102724.47;4972614;28;123628;-73
2024/02/17 05:54:19;;;;;;;20.77;11.90;;;;;;;13.50;63.72;102724.47;4972588;28;123741;-73
2024/02/17 05:56:49;;;;;;;23.83;12.38;;;;;;;13.49;63.55;102712.09;4974527;28;108360;-73
2024/02/17 05:59:16;;;;;;;20.70;12.27;;;;;;;13.50;63.66;102716.50;4972338;28;110304;-73
2024/02/17 06:01:45;;;;;;;19.90;11.48;;;;;;;13.51;63.53;102720.91;4963175;28;124252;-73
2024/02/17 06:04:14;;;;;;;23.17;12.05;;;;;;;13.50;63.53;102722.69;4960431;28;123749;-73
2024/02/17 06:06:41;;;;;;;21.85;11.52;;;;;;;13.51;63.60;102736.88;4971804;28;109623;-73
2024/02/17 06:09:09;;;;;;;23.70;12.00;;;;;;;13.51;63.52;102732.44;4972430;28;110033;-73
2024/02/17 06:11:36;;;;;;;20.13;11.05;;;;;;;13.52;63.52;102738.63;4970975;28;124098;-73
2024/02/17 06:14:04;;;;;;;21.33;10.60;;;;;;;13.52;63.70;102743.94;4975459;28;123937;-72
2024/02/17 06:16:31;;;;;;;20.90;10.38;;;;;;;13.50;63.59;102740.44;4972410;28;110302;-73
2024/02/17 06:21:44;;;;;;;16.73;9.55;;;;;;;13.49;63.53;102749.38;4961026;28;124000;-73
2024/02/17 06:24:21;;;;;;;17.95;10.45;;;;;;;13.49;63.38;102746.69;4975368;28;123988;-73
2024/02/17 06:26:48;;;;;;;21.52;10.25;;;;;;;13.47;63.48;102745.84;4967835;28;109145;-73
2024/02/17 06:29:18;;;;;;;20.85;9.98;;;;;;;13.47;63.66;102756.50;4967018;28;110111;-73
2024/02/17 06:31:46;;;;;;;20.35;9.70;;;;;;;13.48;63.48;102758.25;4970721;28;124354;-73
2024/02/17 06:34:15;;;;;;;18.27;9.77;;;;;;;13.48;63.48;102763.56;4971770;28;123771;-74
2024/02/17 06:36:42;;;;;;;16.80;9.95;;;;;;;13.47;63.45;102767.13;4975785;28;109896;-74
2024/02/17 06:39:12;;;;;;;15.27;8.48;;;;;;;13.46;63.45;102765.41;4971081;28;108451;-74
2024/02/17 06:41:39;;;;;;;13.02;6.22;;;;;;;13.48;63.51;102768.91;4971140;28;123765;-74
2024/02/17 06:44:06;;;;;;;13.40;6.57;;;;;;;13.48;63.51;102774.22;4974506;28;123979;-74
2024/02/17 06:46:34;;;;;;;14.95;6.88;;;;;;;13.48;63.38;102779.53;4972386;28;109156;-74
2024/02/17 06:49:01;;;;;;;14.55;7.03;;;;;;;13.48;63.36;102782.22;4972082;28;109101;-74
2024/02/17 06:51:34;;;;;;;17.33;7.57;;;;;;;13.48;63.51;102779.53;4971692;28;124502;-74
2024/02/17 06:54:01;;;;;;;18.13;7.32;;;;;;;13.49;63.37;102789.28;4974824;28;123535;-74
2024/02/17 06:56:30;;;;;;;15.80;6.80;;;;;;;13.48;63.33;102795.53;4971258;28;108620;-74
2024/02/17 06:58:57;;;;;;;13.23;6.82;;;;;;;13.49;63.50;102797.28;4966761;28;109257;-74
2024/02/17 07:01:26;;;;;;;14.50;6.85;;;;;;;13.50;63.39;102804.34;4968344;28;123875;-74
2024/02/17 07:03:53;;;;;;;14.57;6.88;;;;;;;13.51;63.45;102806.09;4973865;28;124187;-74
2024/02/17 07:06:22;;;;;;;12.73;6.95;;;;;;;13.50;63.44;102809.66;4971240;28;109579;-74
2024/02/17 07:08:50;;;;;;;12.48;6.97;;;;;;;13.49;63.53;102815.91;4971741;28;108692;-74
2024/02/17 07:11:33;;;;;;;13.27;6.47;;;;;;;13.48;63.40;102806.16;4965619;28;123980;-73
2024/02/17 07:14:02;;;;;;;17.35;7.53;;;;;;;13.50;63.31;102809.66;4975401;28;123980;-73
2024/02/17 07:16:56;;;;;;;15.95;7.05;;;;;;;13.50;63.41;102825.63;4976681;28;109229;-74
2024/02/17 07:19:24;;;;;;;12.57;6.65;;;;;;;13.51;63.31;102827.41;4973438;28;109822;-70
2024/02/17 07:21:52;;;;;;;11.95;6.63;;;;;;;13.52;63.36;102831.78;4974423;28;125487;-70
2024/02/17 07:24:20;;;;;;;13.90;7.28;;;;;;;13.52;63.43;102839.78;4972084;28;123943;-70
2024/02/17 07:26:50;;;;;;;14.60;7.25;;;;;;;13.52;63.30;102839.78;4975291;28;109770;-71
2024/02/17 07:29:19;;;;;;;14.27;7.45;;;;;;;13.51;63.31;102841.56;4972659;28;108954;-70
2024/02/17 07:31:46;;;;;;;15.23;7.15;;;;;;;13.52;63.47;102839.78;4976091;28;123580;-70
2024/02/17 07:34:23;;;;;;;12.40;7.40;;;;;;;13.51;63.63;102846.91;4968947;28;123758;-69
2024/02/17 07:36:50;;;;;;;14.40;6.82;;;;;;;13.53;63.54;102857.50;4971735;28;108226;-70
2024/02/17 07:39:18;;;;;;;14.68;7.05;;;;;;;13.53;63.43;102858.38;4973574;28;107838;-71
2024/02/17 07:41:45;;;;;;;13.15;6.88;;;;;;;13.55;63.52;102861.00;4969895;28;125021;-71
2024/02/17 07:44:14;;;;;;;12.30;6.70;;;;;;;13.57;63.46;102859.19;4974495;28;124202;-72
2024/02/17 07:46:42;;;;;;;12.13;7.30;;;;;;;13.59;63.43;102876.00;4971038;28;109634;-72
2024/02/17 07:49:17;;;;;;;15.32;7.18;;;;;;;13.60;63.38;102875.09;4973363;28;109308;-71
2024/02/17 07:51:44;;;;;;;14.93;7.32;;;;;;;13.60;63.43;102880.41;4974026;28;124147;-71
2024/02/17 07:54:20;;;;;;;12.55;6.65;;;;;;;13.63;63.38;102885.63;4970929;28;124518;-72
2024/02/17 07:56:47;;;;;;;15.32;7.28;;;;;;;13.63;63.30;102888.31;4968810;28;109656;-72
2024/02/17 07:59:15;;;;;;;17.02;7.07;;;;;;;13.64;63.36;102892.72;4964997;28;109478;-72
2024/02/17 08:01:42;;;;;;;12.93;7.20;;;;;;;13.65;63.36;102891.81;4970455;28;124390;-71
2024/02/17 08:04:10;;;;;;;13.35;7.32;;;;;;;13.68;63.56;102905.06;4967986;28;124558;-72
2024/02/17 08:06:38;;;;;;;15.63;7.13;;;;;;;13.71;63.53;102910.31;4975183;28;109913;-73
2024/02/17 08:09:06;;;;;;;12.32;6.75;;;;;;;13.73;63.59;102911.16;4964328;28;110008;-72
2024/02/17 08:11:36;;;;;;;15.93;7.20;;;;;;;13.74;63.51;102920.88;4956786;28;124017;-71
2024/02/17 08:14:15;;;;;;;15.50;7.13;;;;;;;13.77;63.52;102926.13;4967948;28;123038;-72
2024/02/17 08:16:45;;;;;;;14.90;7.32;;;;;;;13.78;63.31;102922.53;4963302;28;109304;-72
2024/02/17 08:19:13;;;;;;;16.63;7.57;;;;;;;13.79;63.33;102918.97;4960406;28;109706;-72
2024/02/17 08:21:41;;;;;;;14.57;6.22;;;;;;;13.80;63.36;102920.69;4968583;28;124335;-72
2024/02/17 08:24:08;;;;;;;13.15;7.28;;;;;;;13.80;63.64;102926.03;4976084;28;125373;-72
2024/02/17 08:26:35;;;;;;;15.35;6.63;;;;;;;13.82;63.46;102934.00;4966665;28;108749;-71
2024/02/17 08:29:02;;;;;;;13.88;6.82;;;;;;;13.82;63.45;102932.22;4973211;28;108839;-72
2024/02/17 08:31:31;;;;;;;16.02;7.10;;;;;;;13.84;63.39;102940.16;4971794;28;124085;-72
2024/02/17 08:33:58;;;;;;;15.88;7.72;;;;;;;13.86;63.50;102940.13;4945103;28;122793;-71
2024/02/17 08:36:26;;;;;;;18.15;7.35;;;;;;;13.89;63.43;102950.72;4975760;28;109359;-72
2024/02/17 08:38:59;;;;;;;12.45;7.65;;;;;;;13.89;63.29;102950.72;4975358;28;109886;-71
2024/02/17 08:41:27;;;;;;;17.70;7.07;;;;;;;13.90;63.50;102952.44;4973270;28;124037;-72
2024/02/17 08:43:54;;;;;;;16.17;7.03;;;;;;;13.93;63.72;102952.38;4961361;28;122994;-72
2024/02/17 08:46:22;;;;;;;12.32;7.00;;;;;;;13.94;63.29;102964.78;4973914;28;108894;-72
2024/02/17 08:48:49;;;;;;;13.00;6.82;;;;;;;13.96;63.50;102962.97;4973288;28;108886;-72
2024/02/17 08:51:17;;;;;;;14.65;7.28;;;;;;;13.97;63.44;102959.38;4968640;28;123410;-72
2024/02/17 08:53:44;;;;;;;12.20;6.53;;;;;;;13.97;63.35;102964.69;4972713;28;124505;-71
2024/02/17 08:56:12;;;;;;;14.25;7.10;;;;;;;13.97;63.37;102970.03;4967855;28;109970;-72
2024/02/17 08:58:39;;;;;;;17.27;6.95;;;;;;;13.97;63.30;102975.34;4974079;28;109923;-72
2024/02/17 09:01:06;;;;;;;15.75;7.10;;;;;;;13.97;63.35;102975.34;4974553;28;123788;-72
2024/02/17 09:03:38;;;;;;;16.67;6.45;;;;;;;13.96;63.17;102978.94;4974601;28;123844;-72
2024/02/17 09:06:05;;;;;;;16.25;6.75;;;;;;;13.97;63.43;102980.69;4973507;28;109388;-72
2024/02/17 09:08:32;;;;;;;12.13;6.55;;;;;;;13.97;63.27;102988.69;4975851;28;108947;-72
2024/02/17 09:10:59;;;;;;;15.55;6.75;;;;;;;14.00;63.30;102991.28;4971660;28;124889;-72
2024/02/17 09:13:31;;;;;;;14.85;6.70;;;;;;;13.98;63.25;102993.09;4975421;28;124352;-72
2024/02/17 09:15:58;;;;;;;16.83;7.00;;;;;;;14.01;63.40;103003.66;4975303;28;109525;-72
2024/02/17 09:18:25;;;;;;;13.05;6.95;;;;;;;14.05;63.39;103000.00;4951817;28;108162;-72
2024/02/17 09:20:53;;;;;;;10.57;6.70;;;;;;;14.06;63.35;102996.44;4973962;28;124401;-72
2024/02/17 09:23:20;;;;;;;14.18;6.40;;;;;;;14.07;63.43;102998.22;4969097;28;123509;-72
2024/02/17 09:25:47;;;;;;;16.38;6.93;;;;;;;14.08;63.32;102994.59;4972237;28;109251;-72
2024/02/17 09:28:19;;;;;;;16.70;6.72;;;;;;;14.11;63.30;102999.88;4963411;28;108691;-72
2024/02/17 09:30:47;;;;;;;16.98;6.30;;;;;;;14.13;63.37;103003.38;4967175;28;124161;-72
2024/02/17 09:33:14;;;;;;;13.05;6.60;;;;;;;14.16;63.46;103008.59;4974989;28;123978;-72
2024/02/17 09:35:41;;;;;;;12.10;6.20;;;;;;;14.19;63.41;103019.19;4970666;28;108959;-72
2024/02/17 09:38:09;;;;;;;14.93;6.47;;;;;;;14.23;63.35;103024.47;4973364;28;108615;-72
2024/02/17 09:40:36;;;;;;;13.30;6.43;;;;;;;14.25;63.28;103027.97;4970486;28;123721;-71
2024/02/17 09:43:04;;;;;;;12.63;6.50;;;;;;;14.29;63.38;103024.28;4972491;28;124591;-72
2024/02/17 09:45:31;;;;;;;12.98;6.45;;;;;;;14.34;63.48;103025.06;4972778;28;109982;-72
2024/02/17 09:47:59;;;;;;;10.30;5.60;;;;;;;14.37;63.39;103028.53;4967362;28;110392;-72
2024/02/17 09:50:31;;;;;;;13.60;6.32;;;;;;;14.41;63.56;103030.19;4970689;28;123078;-72
2024/02/17 09:53:01;;;;;;;11.13;6.35;;;;;;;14.47;63.48;103034.50;4972561;28;123753;-72
2024/02/17 09:55:30;;;;;;;12.63;5.97;;;;;;;14.50;63.32;103037.06;4975868;28;109472;-71
2024/02/17 09:57:58;;;;;;;12.13;6.18;;;;;;;14.54;63.28;103040.53;4965786;28;109489;-72
2024/02/17 10:00:25;;;;;;;12.05;6.15;;;;;;;14.58;63.70;103042.25;4973144;28;123915;-72
2024/02/17 10:02:53;;;;;;;13.30;6.18;;;;;;;14.63;63.44;103050.09;4964435;28;124011;-72
2024/02/17 10:05:27;;;;;;;12.18;6.45;;;;;;;14.70;63.17;103046.38;4973717;28;108732;-72
2024/02/17 10:07:55;;;;;;;17.13;6.43;;;;;;;14.73;63.48;103040.94;4972826;28;109523;-72
2024/02/17 10:10:23;;;;;;;12.57;6.40;;;;;;;14.78;63.37;103039.03;4973254;28;124190;-71
2024/02/17 10:12:53;;;;;;;15.40;6.55;;;;;;;14.84;63.30;103041.50;4973111;28;124031;-71
2024/02/17 10:15:22;;;;;;;12.75;6.70;;;;;;;14.89;63.35;103042.25;4969249;28;109284;-72
2024/02/17 10:17:52;;;;;;;14.57;6.82;;;;;;;14.96;63.23;103041.19;4972455;28;109568;-72
2024/02/17 10:20:20;;;;;;;17.98;6.40;;;;;;;15.02;63.20;103047.28;4973184;28;124162;-72
2024/02/17 10:22:47;;;;;;;14.27;6.78;;;;;;;15.03;63.16;103049.91;4973234;28;122978;-72
2024/02/17 10:25:15;;;;;;;15.20;7.00;;;;;;;15.06;63.03;103043.59;4957356;28;108123;-72
2024/02/17 10:27:43;;;;;;;13.27;6.30;;;;;;;15.08;63.10;103047.09;4973176;28;109824;-72
2024/02/17 10:30:13;;;;;;;12.95;6.07;;;;;;;15.12;63.09;103043.41;4971218;28;124168;-72
2024/02/17 10:32:40;;;;;;;12.80;6.50;;;;;;;15.14;62.97;103053.13;4968703;28;123060;-72
2024/02/17 10:35:09;;;;;;;17.23;6.55;;;;;;;15.20;62.87;103052.09;4968195;28;109939;-72
2024/02/17 10:37:40;;;;;;;18.05;6.93;;;;;;;15.22;62.85;103055.59;4972194;28;110049;-72
2024/02/17 10:40:09;;;;;;;12.75;6.18;;;;;;;15.22;62.67;103044.91;4972229;28;123804;-72
2024/02/17 10:42:37;;;;;;;13.05;6.18;;;;;;;15.24;62.81;103053.75;4972192;28;124388;-71
2024/02/17 10:45:05;;;;;;;12.80;6.60;;;;;;;15.27;62.73;103064.31;4973886;28;108375;-71
2024/02/17 10:47:45;;;;;;;11.10;6.28;;;;;;;15.32;62.96;103062.38;4972294;28;108953;-72
2024/02/17 10:50:14;;;;;;;14.18;6.43;;;;;;;15.38;62.73;103062.19;4975707;28;124130;-72
2024/02/17 10:52:51;;;;;;;13.50;6.22;;;;;;;15.45;62.77;103072.72;4974901;28;124586;-72
2024/02/17 10:55:37;;;;;;;11.47;5.80;;;;;;;15.49;62.82;103069.03;4960959;28;109298;-71
2024/02/17 10:58:17;;;;;;;11.17;6.00;;;;;;;15.52;62.73;103071.59;4970921;28;108784;-71
2024/02/17 11:00:46;;;;;;;16.10;6.05;;;;;;;15.59;62.72;103075.84;4968727;28;124111;-72
2024/02/17 11:03:16;;;;;;;12.75;6.75;;;;;;;15.62;62.73;103070.41;4971332;28;124742;-71
2024/02/17 11:05:47;;;;;;;13.80;6.55;;;;;;;15.69;62.64;103081.75;4969224;28;108846;-72
2024/02/17 11:08:16;;;;;;;13.10;6.28;;;;;;;15.73;62.76;103081.66;4971246;28;108237;-72
2024/02/17 11:10:44;;;;;;;15.30;6.45;;;;;;;15.77;62.57;103077.97;4975559;28;124135;-72
2024/02/17 11:13:22;;;;;;;13.98;6.43;;;;;;;15.82;62.42;103083.16;4976174;28;123940;-72